Time;durP1;ratioP1;P1;durP2;ratioP2;P2;SDS_P1;SDS_P2;PMS_P1;PMS_P2;Temp;Humidity;BMP_temperature;BMP_pressure;BME280_temperature;BME280_humidity;BME280_pressure;Samples;Min_cycle;Max_cycle;Signal;HPM_P1;HPM_P2
2023/12/15 00:00:41;;;;;;;;;;;11.90;87.20;;;;;;4976691;28;19912;-80
2023/12/15 00:03:07;;;;;;;;;;;11.90;87.10;;;;;;4976421;28;19914;-79
2023/12/15 00:05:33;;;;;;;;;;;11.90;87.10;;;;;;4976569;28;19906;-79
2023/12/15 00:07:59;;;;;;;;;;;11.90;87.10;;;;;;4994411;28;20515;-79
2023/12/15 00:10:24;;;;;;;;;;;11.90;87.20;;;;;;4976636;28;19933;-79
2023/12/15 00:12:50;;;;;;;;;;;11.90;87.10;;;;;;4976682;28;19910;-79
2023/12/15 00:15:15;;;;;;;;;;;11.90;87.10;;;;;;4976573;28;20282;-80
2023/12/15 00:17:41;;;;;;;;;;;11.90;87.10;;;;;;4976786;28;19944;-79
2023/12/15 00:20:07;;;;;;;;;;;11.90;87.10;;;;;;4976429;28;19913;-79
2023/12/15 00:22:33;;;;;;;;;;;11.90;87.10;;;;;;4976270;28;19910;-78
2023/12/15 00:24:59;;;;;;;;;;;11.90;87.10;;;;;;4993875;28;19906;-79
2023/12/15 00:27:24;;;;;;;;;;;11.90;87.10;;;;;;4993348;28;19913;-79
2023/12/15 00:29:50;;;;;;;;;;;11.90;87.10;;;;;;4970119;28;19910;-79
2023/12/15 00:32:15;;;;;;;;;;;11.90;87.00;;;;;;4957068;28;19906;-79
2023/12/15 00:34:41;;;;;;;;;;;11.90;87.10;;;;;;4956967;28;19984;-78
2023/12/15 00:37:06;;;;;;;;;;;11.90;87.10;;;;;;4974205;28;20005;-79
2023/12/15 00:39:35;;;;;;;;;;;11.90;87.10;;;;;;4974131;28;19913;-78
2023/12/15 00:42:00;;;;;;;;;;;11.90;87.10;;;;;;4974058;28;20008;-78
2023/12/15 00:44:26;;;;;;;;;;;11.90;87.10;;;;;;4956947;28;19989;-79
2023/12/15 00:46:51;;;;;;;;;;;12.00;87.10;;;;;;4974293;28;20286;-78
2023/12/15 00:49:17;;;;;;;;;;;11.90;87.10;;;;;;4956868;28;19906;-79
2023/12/15 00:51:42;;;;;;;;;;;11.90;87.10;;;;;;4957002;28;19910;-78
2023/12/15 00:54:08;;;;;;;;;;;11.90;87.00;;;;;;4957000;28;19910;-78
2023/12/15 00:56:33;;;;;;;;;;;11.90;87.00;;;;;;4956656;28;19910;-79
2023/12/15 00:59:02;;;;;;;;;;;11.90;87.10;;;;;;4957079;28;20439;-79
2023/12/15 01:01:27;;;;;;;;;;;11.90;87.00;;;;;;4956942;28;19906;-79
2023/12/15 01:03:53;;;;;;;;;;;11.90;87.00;;;;;;4956391;28;19921;-79
2023/12/15 01:06:20;;;;;;;;;;;11.90;87.00;;;;;;4974430;28;19906;-79
2023/12/15 01:08:45;;;;;;;;;;;11.90;87.00;;;;;;4973808;28;20359;-79
2023/12/15 01:11:11;;;;;;;;;;;11.90;87.00;;;;;;4956798;28;19913;-79
2023/12/15 01:13:37;;;;;;;;;;;11.90;87.00;;;;;;4973816;28;19909;-78
2023/12/15 01:16:06;;;;;;;;;;;11.80;86.90;;;;;;4956832;28;19913;-78
2023/12/15 01:18:32;;;;;;;;;;;11.90;86.90;;;;;;4956483;28;19922;-79
2023/12/15 01:20:57;;;;;;;;;;;11.90;87.00;;;;;;4974003;28;19914;-78
2023/12/15 01:23:23;;;;;;;;;;;11.90;87.00;;;;;;4956200;28;19914;-79
2023/12/15 01:25:48;;;;;;;;;;;11.90;87.00;;;;;;4974140;28;19906;-79
2023/12/15 01:28:14;;;;;;;;;;;11.90;87.00;;;;;;4956829;28;20340;-78
2023/12/15 01:30:39;;;;;;;;;;;11.90;86.90;;;;;;4956461;28;19906;-79
2023/12/15 01:33:05;;;;;;;;;;;11.90;86.90;;;;;;4956369;28;20720;-79
2023/12/15 01:35:31;;;;;;;;;;;11.90;87.00;;;;;;4956708;28;20383;-79
2023/12/15 01:37:56;;;;;;;;;;;11.90;86.90;;;;;;4956392;28;19906;-77
2023/12/15 01:40:21;;;;;;;;;;;11.90;86.90;;;;;;4956957;28;19913;-79
2023/12/15 01:42:47;;;;;;;;;;;11.90;86.90;;;;;;4959773;28;20478;-79
2023/12/15 01:45:13;;;;;;;;;;;11.90;87.00;;;;;;4977256;28;19906;-77
2023/12/15 01:47:39;;;;;;;;;;;11.90;87.00;;;;;;4977034;28;19906;-80
2023/12/15 01:50:06;;;;;;;;;;;11.90;87.00;;;;;;4959256;28;20000;-79
2023/12/15 01:52:32;;;;;;;;;;;11.90;87.00;;;;;;4976975;28;19910;-78
2023/12/15 01:54:57;;;;;;;;;;;11.90;87.00;;;;;;4977099;28;19906;-79
2023/12/15 01:57:23;;;;;;;;;;;11.90;87.00;;;;;;4959850;28;19917;-77
2023/12/15 01:59:49;;;;;;;;;;;11.90;86.90;;;;;;4959369;28;19906;-79
2023/12/15 02:02:16;;;;;;;;;;;11.90;86.90;;;;;;4959338;28;19961;-79
2023/12/15 02:04:42;;;;;;;;;;;11.90;87.00;;;;;;4959519;28;19936;-76
2023/12/15 02:07:07;;;;;;;;;;;11.90;87.00;;;;;;4959201;28;19957;-77
2023/12/15 02:09:33;;;;;;;;;;;11.90;87.00;;;;;;4959306;28;19906;-78
2023/12/15 02:11:58;;;;;;;;;;;11.80;87.00;;;;;;4959184;28;19911;-77
2023/12/15 02:14:24;;;;;;;;;;;11.90;87.00;;;;;;4959436;28;20000;-77
2023/12/15 02:16:50;;;;;;;;;;;11.90;87.10;;;;;;4976492;28;19949;-77
2023/12/15 02:19:15;;;;;;;;;;;11.90;87.10;;;;;;4958989;28;19949;-77
2023/12/15 02:21:41;;;;;;;;;;;11.90;87.10;;;;;;4959066;28;19906;-76
2023/12/15 02:24:06;;;;;;;;;;;11.90;87.10;;;;;;4959148;28;20705;-77
2023/12/15 02:26:32;;;;;;;;;;;11.90;87.00;;;;;;4958855;28;19906;-79
2023/12/15 02:28:57;;;;;;;;;;;11.90;87.00;;;;;;4958922;28;19906;-79
2023/12/15 02:31:24;;;;;;;;;;;11.90;87.00;;;;;;4959239;28;19910;-79
2023/12/15 02:33:50;;;;;;;;;;;11.90;87.60;;;;;;4958906;28;19921;-79
2023/12/15 02:36:22;;;;;;;;;;;11.80;87.00;;;;;;4959190;28;20323;-79
2023/12/15 02:38:47;;;;;;;;;;;11.90;87.00;;;;;;4975957;28;20389;-79
2023/12/15 02:41:13;;;;;;;;;;;11.90;87.00;;;;;;4976135;28;19910;-78
2023/12/15 02:43:39;;;;;;;;;;;11.90;87.00;;;;;;4958888;28;19961;-78
2023/12/15 02:46:05;;;;;;;;;;;11.90;87.00;;;;;;4976126;28;19993;-78
2023/12/15 02:48:31;;;;;;;;;;;11.80;87.00;;;;;;4976048;28;19906;-78
2023/12/15 02:50:58;;;;;;;;;;;11.90;87.00;;;;;;4958818;28;19969;-79
2023/12/15 02:53:23;;;;;;;;;;;11.90;87.00;;;;;;4957928;28;20148;-79
2023/12/15 02:55:49;;;;;;;;;;;11.90;87.00;;;;;;4958520;28;19957;-79
2023/12/15 02:58:16;;;;;;;;;;;11.90;87.00;;;;;;4958347;28;19910;-78
2023/12/15 03:00:41;;;;;;;;;;;11.90;87.00;;;;;;4976045;28;19906;-79
2023/12/15 03:03:07;;;;;;;;;;;11.90;87.10;;;;;;4958681;28;20402;-79
2023/12/15 03:05:32;;;;;;;;;;;11.90;87.00;;;;;;4958516;28;19906;-79
2023/12/15 03:07:59;;;;;;;;;;;11.90;87.00;;;;;;4975986;28;19914;-79
2023/12/15 03:10:25;;;;;;;;;;;11.80;87.00;;;;;;4958105;28;19997;-78
2023/12/15 03:12:50;;;;;;;;;;;11.80;87.10;;;;;;4958248;28;19937;-79
2023/12/15 03:15:16;;;;;;;;;;;11.90;87.10;;;;;;4958175;28;19913;-78
2023/12/15 03:17:42;;;;;;;;;;;11.90;87.10;;;;;;4958365;28;19906;-79
2023/12/15 03:20:08;;;;;;;;;;;11.90;87.10;;;;;;4957946;28;19906;-78
2023/12/15 03:22:33;;;;;;;;;;;11.90;87.10;;;;;;4958427;28;19957;-78
2023/12/15 03:24:58;;;;;;;;;;;11.90;87.10;;;;;;4975356;28;19913;-79
2023/12/15 03:27:24;;;;;;;;;;;11.90;87.20;;;;;;4957930;28;19906;-79
2023/12/15 03:29:50;;;;;;;;;;;11.80;87.10;;;;;;4958064;28;19906;-79
2023/12/15 03:32:15;;;;;;;;;;;11.80;87.20;;;;;;4958033;28;19961;-80
2023/12/15 03:34:41;;;;;;;;;;;11.80;87.20;;;;;;4957913;28;19914;-79
2023/12/15 03:37:08;;;;;;;;;;;11.90;87.30;;;;;;4957845;28;19914;-78
2023/12/15 03:39:34;;;;;;;;;;;11.90;87.30;;;;;;4957879;28;19909;-79
2023/12/15 03:42:06;;;;;;;;;;;11.80;87.20;;;;;;4957612;28;19929;-79
2023/12/15 03:44:36;;;;;;;;;;;11.80;87.20;;;;;;4955623;28;19910;-78
2023/12/15 03:47:02;;;;;;;;;;;11.80;87.10;;;;;;4957629;28;19906;-78
2023/12/15 03:49:29;;;;;;;;;;;11.90;87.20;;;;;;4973910;28;20412;-78
2023/12/15 03:51:55;;;;;;;;;;;11.80;87.10;;;;;;4957700;28;19933;-78
2023/12/15 03:54:20;;;;;;;;;;;11.80;87.10;;;;;;4957656;28;19906;-79
2023/12/15 03:56:47;;;;;;;;;;;11.80;87.10;;;;;;4957694;28;19910;-79
2023/12/15 03:59:12;;;;;;;;;;;11.80;87.10;;;;;;4957516;28;19910;-79
2023/12/15 04:01:38;;;;;;;;;;;11.80;87.10;;;;;;4957470;28;20005;-79
2023/12/15 04:04:03;;;;;;;;;;;11.80;87.10;;;;;;4957181;28;20363;-78
2023/12/15 04:06:30;;;;;;;;;;;11.80;87.10;;;;;;4974713;28;20351;-79
2023/12/15 04:08:55;;;;;;;;;;;11.80;87.10;;;;;;4974578;28;19974;-79
2023/12/15 04:11:20;;;;;;;;;;;11.90;87.10;;;;;;4957399;28;19910;-79
2023/12/15 04:13:46;;;;;;;;;;;11.90;87.20;;;;;;4957233;28;20359;-80
2023/12/15 04:16:11;;;;;;;;;;;11.80;87.10;;;;;;4957243;28;19906;-79
2023/12/15 04:18:37;;;;;;;;;;;11.80;87.10;;;;;;4957164;28;19906;-79
2023/12/15 04:21:03;;;;;;;;;;;11.80;87.10;;;;;;4957196;28;19906;-78
2023/12/15 04:23:29;;;;;;;;;;;11.90;87.10;;;;;;4957083;28;19909;-79
2023/12/15 04:25:57;;;;;;;;;;;11.80;87.00;;;;;;4957440;28;19913;-79
2023/12/15 04:28:25;;;;;;;;;;;11.80;87.10;;;;;;4973961;28;20384;-78
2023/12/15 04:30:51;;;;;;;;;;;11.80;87.10;;;;;;4974657;28;19956;-79
2023/12/15 04:33:17;;;;;;;;;;;11.80;87.10;;;;;;4956877;28;19914;-79
2023/12/15 04:35:42;;;;;;;;;;;11.80;87.10;;;;;;4956880;28;19906;-79
2023/12/15 04:38:08;;;;;;;;;;;11.80;87.20;;;;;;4957253;28;19910;-78
2023/12/15 04:40:33;;;;;;;;;;;11.80;87.20;;;;;;4957351;28;19949;-79
2023/12/15 04:43:00;;;;;;;;;;;11.80;87.10;;;;;;4974333;28;19983;-79
2023/12/15 04:45:25;;;;;;;;;;;11.80;87.10;;;;;;4957159;28;19975;-78
2023/12/15 04:47:51;;;;;;;;;;;11.80;87.20;;;;;;4974142;28;19906;-79
2023/12/15 04:50:17;;;;;;;;;;;11.80;87.20;;;;;;4956929;28;19910;-78
2023/12/15 04:52:42;;;;;;;;;;;11.90;87.30;;;;;;4956747;28;19949;-79
2023/12/15 04:55:08;;;;;;;;;;;11.80;87.20;;;;;;4956843;28;19914;-79
2023/12/15 04:57:33;;;;;;;;;;;11.80;87.20;;;;;;4974384;28;19910;-79
2023/12/15 04:59:59;;;;;;;;;;;11.80;87.20;;;;;;4956653;28;19906;-79
2023/12/15 05:02:24;;;;;;;;;;;11.90;87.30;;;;;;4956755;28;19909;-79
2023/12/15 05:04:50;;;;;;;;;;;11.80;87.30;;;;;;4957063;28;20000;-79
2023/12/15 05:07:15;;;;;;;;;;;11.80;87.20;;;;;;4974240;28;19996;-78
2023/12/15 05:09:41;;;;;;;;;;;11.80;87.20;;;;;;4956967;28;19906;-79
2023/12/15 05:12:08;;;;;;;;;;;11.80;87.20;;;;;;4956635;28;20290;-79
2023/12/15 05:14:35;;;;;;;;;;;11.80;87.20;;;;;;4956820;28;19906;-79
2023/12/15 05:17:00;;;;;;;;;;;11.80;87.20;;;;;;4959610;28;19906;-78
2023/12/15 05:19:25;;;;;;;;;;;11.80;87.20;;;;;;4960375;28;19956;-79
2023/12/15 05:21:51;;;;;;;;;;;11.80;87.20;;;;;;4961287;28;19936;-79
2023/12/15 05:24:16;;;;;;;;;;;11.80;87.20;;;;;;4954262;28;19918;-80
2023/12/15 05:26:42;;;;;;;;;;;11.80;87.20;;;;;;4971781;28;19918;-79
2023/12/15 05:29:07;;;;;;;;;;;11.90;87.30;;;;;;4960927;29;19906;-79
2023/12/15 05:31:34;;;;;;;;;;;11.80;87.30;;;;;;4942417;29;19914;-79
2023/12/15 05:33:59;;;;;;;;;;;11.80;87.20;;;;;;4940314;29;19914;-79
2023/12/15 05:36:24;;;;;;;;;;;11.80;87.30;;;;;;4953354;28;19912;-79
2023/12/15 05:38:52;;;;;;;;;;;11.80;87.30;;;;;;4960294;28;19965;-79
2023/12/15 05:41:18;;;;;;;;;;;11.80;87.30;;;;;;4961755;28;19913;-79
2023/12/15 05:43:44;;;;;;;;;;;11.80;87.20;;;;;;4976971;28;19914;-78
2023/12/15 05:46:09;;;;;;;;;;;11.90;87.30;;;;;;4958637;28;19938;-79
2023/12/15 05:48:35;;;;;;;;;;;11.80;87.20;;;;;;4960964;28;20386;-78
2023/12/15 05:51:01;;;;;;;;;;;11.80;87.20;;;;;;4959569;28;19909;-77
2023/12/15 05:53:26;;;;;;;;;;;11.80;87.30;;;;;;4959341;28;19960;-79
2023/12/15 05:55:53;;;;;;;;;;;11.80;87.20;;;;;;4960450;28;19906;-79
2023/12/15 05:58:19;;;;;;;;;;;11.80;87.30;;;;;;4975053;28;19992;-79
2023/12/15 06:00:49;;;;;;;;;;;11.80;87.20;;;;;;4959556;28;20073;-79
2023/12/15 06:03:17;;;;;;;;;;;12.70;87.80;;;;;;4961914;28;19922;-78
2023/12/15 06:05:46;;;;;;;;;;;11.80;87.30;;;;;;4964515;28;20000;-80
2023/12/15 06:08:15;;;;;;;;;;;11.80;87.30;;;;;;4964344;28;19910;-80
2023/12/15 06:10:42;;;;;;;;;;;11.80;87.30;;;;;;4964761;28;19906;-80
2023/12/15 06:13:07;;;;;;;;;;;11.80;87.30;;;;;;4965763;28;19909;-81
2023/12/15 06:15:33;;;;;;;;;;;11.80;87.30;;;;;;4964260;28;19925;-80
2023/12/15 06:17:58;;;;;;;;;;;11.80;87.30;;;;;;4963095;28;20083;-80
2023/12/15 06:20:24;;;;;;;;;;;11.80;87.30;;;;;;4961225;28;19917;-80
2023/12/15 06:22:51;;;;;;;;;;;11.80;87.30;;;;;;4962317;28;19910;-80
2023/12/15 06:25:16;;;;;;;;;;;11.80;87.30;;;;;;4961313;28;19910;-81
2023/12/15 06:27:42;;;;;;;;;;;11.80;87.30;;;;;;4960716;28;19992;-80
2023/12/15 06:30:08;;;;;;;;;;;11.80;87.30;;;;;;4961141;28;19969;-80
2023/12/15 06:32:35;;;;;;;;;;;11.80;87.40;;;;;;4963566;28;20375;-80
2023/12/15 06:35:00;;;;;;;;;;;11.80;87.40;;;;;;4961171;28;19914;-81
2023/12/15 06:37:25;;;;;;;;;;;11.80;87.40;;;;;;4960043;28;20315;-80
2023/12/15 06:39:51;;;;;;;;;;;11.80;87.30;;;;;;4958356;28;19906;-79
2023/12/15 06:42:17;;;;;;;;;;;11.80;87.30;;;;;;4958472;28;19910;-79
2023/12/15 06:44:42;;;;;;;;;;;11.90;87.40;;;;;;4958995;28;19907;-80
2023/12/15 06:47:08;;;;;;;;;;;11.90;87.40;;;;;;4958806;28;20270;-81
2023/12/15 06:49:33;;;;;;;;;;;11.80;87.30;;;;;;4961133;28;19914;-80
2023/12/15 06:51:59;;;;;;;;;;;11.80;87.30;;;;;;4962479;28;19912;-80
2023/12/15 06:54:25;;;;;;;;;;;11.90;87.40;;;;;;4961601;28;20347;-81
2023/12/15 06:56:50;;;;;;;;;;;12.20;87.50;;;;;;4957765;28;19909;-79
2023/12/15 06:59:16;;;;;;;;;;;11.80;87.40;;;;;;4957336;28;20004;-80
2023/12/15 07:01:41;;;;;;;;;;;11.80;87.30;;;;;;4957728;28;20007;-80
2023/12/15 07:04:07;;;;;;;;;;;11.80;87.40;;;;;;4966515;28;19932;-80
2023/12/15 07:06:32;;;;;;;;;;;11.80;87.40;;;;;;4993485;28;19917;-80
2023/12/15 07:08:58;;;;;;;;;;;11.90;87.50;;;;;;4975869;28;19944;-80
2023/12/15 07:11:23;;;;;;;;;;;11.80;87.40;;;;;;4975373;28;19923;-80
2023/12/15 07:13:49;;;;;;;;;;;11.80;87.40;;;;;;4967895;28;20291;-79
2023/12/15 07:16:15;;;;;;;;;;;11.80;87.40;;;;;;4956239;28;19914;-80
2023/12/15 07:18:40;;;;;;;;;;;11.90;87.40;;;;;;4956346;28;19906;-80
2023/12/15 07:21:06;;;;;;;;;;;11.80;87.40;;;;;;4956413;28;20264;-80
2023/12/15 07:23:31;;;;;;;;;;;11.80;87.40;;;;;;4956105;28;19917;-80
2023/12/15 07:25:57;;;;;;;;;;;11.80;87.30;;;;;;4956555;28;19952;-80
2023/12/15 07:28:22;;;;;;;;;;;11.80;87.40;;;;;;4956179;28;19961;-79
2023/12/15 07:30:47;;;;;;;;;;;11.80;87.40;;;;;;4956276;28;20236;-80
2023/12/15 07:33:13;;;;;;;;;;;11.80;87.40;;;;;;4956015;28;20606;-80
2023/12/15 07:35:38;;;;;;;;;;;11.80;87.40;;;;;;4956474;28;19949;-80
2023/12/15 07:38:04;;;;;;;;;;;11.80;87.40;;;;;;4956263;28;19956;-80
2023/12/15 07:40:29;;;;;;;;;;;11.70;87.40;;;;;;4955980;28;19997;-79
2023/12/15 07:42:55;;;;;;;;;;;11.70;87.40;;;;;;4956179;28;20016;-80
2023/12/15 07:45:20;;;;;;;;;;;11.80;87.40;;;;;;4956317;28;19913;-79
2023/12/15 07:47:46;;;;;;;;;;;11.80;87.40;;;;;;4956421;28;19910;-80
2023/12/15 07:50:11;;;;;;;;;;;11.70;87.40;;;;;;4956032;28;19922;-80
2023/12/15 07:52:37;;;;;;;;;;;11.80;87.40;;;;;;4955684;28;19914;-80
2023/12/15 07:55:02;;;;;;;;;;;11.80;87.50;;;;;;4956013;28;20295;-80
2023/12/15 07:57:28;;;;;;;;;;;11.80;87.40;;;;;;4956156;28;19909;-80
2023/12/15 07:59:53;;;;;;;;;;;11.80;87.40;;;;;;4956011;28;19913;-80
2023/12/15 08:02:20;;;;;;;;;;;11.80;87.40;;;;;;4955515;28;20294;-79
2023/12/15 08:04:46;;;;;;;;;;;11.70;87.40;;;;;;4955737;28;19992;-80
2023/12/15 08:07:11;;;;;;;;;;;11.80;87.40;;;;;;4956214;28;19953;-80
2023/12/15 08:09:37;;;;;;;;;;;11.80;87.50;;;;;;4955732;28;19953;-80
2023/12/15 08:12:02;;;;;;;;;;;11.80;87.50;;;;;;4956294;28;19906;-80
2023/12/15 08:14:28;;;;;;;;;;;11.80;87.50;;;;;;4956220;28;19910;-80
2023/12/15 08:16:54;;;;;;;;;;;11.80;87.40;;;;;;4955570;28;20016;-79
2023/12/15 08:19:19;;;;;;;;;;;11.80;87.40;;;;;;4972728;28;19998;-80
2023/12/15 08:21:45;;;;;;;;;;;11.80;87.40;;;;;;4955891;28;19955;-80
2023/12/15 08:24:10;;;;;;;;;;;11.80;87.50;;;;;;4955535;28;19932;-80
2023/12/15 08:26:36;;;;;;;;;;;11.80;87.50;;;;;;4955234;28;20388;-79
2023/12/15 08:29:01;;;;;;;;;;;11.80;87.50;;;;;;4955346;28;20339;-79
2023/12/15 08:31:26;;;;;;;;;;;11.80;87.40;;;;;;4972574;28;20569;-80
2023/12/15 08:33:52;;;;;;;;;;;11.80;87.40;;;;;;4955098;28;20271;-79
2023/12/15 08:36:17;;;;;;;;;;;11.80;87.40;;;;;;4955226;28;20386;-80
2023/12/15 08:38:43;;;;;;;;;;;11.80;87.50;;;;;;4955534;28;20425;-80
2023/12/15 08:41:08;;;;;;;;;;;11.80;87.50;;;;;;4955500;28;19993;-80
2023/12/15 08:43:34;;;;;;;;;;;11.80;87.40;;;;;;4955043;28;19914;-80
2023/12/15 08:46:00;;;;;;;;;;;11.80;87.40;;;;;;4955559;28;19910;-80
2023/12/15 08:48:25;;;;;;;;;;;11.80;87.50;;;;;;4954938;28;20458;-80
2023/12/15 08:50:51;;;;;;;;;;;11.80;87.50;;;;;;4956438;28;20009;-80
2023/12/15 08:53:18;;;;;;;;;;;11.80;87.40;;;;;;4959088;28;20367;-79
2023/12/15 08:55:44;;;;;;;;;;;11.80;87.50;;;;;;4959423;28;19913;-80
2023/12/15 08:58:09;;;;;;;;;;;11.80;87.50;;;;;;4952894;29;19906;-80
2023/12/15 09:00:35;;;;;;;;;;;11.80;87.60;;;;;;4939631;29;20356;-80
2023/12/15 09:03:00;;;;;;;;;;;11.70;87.50;;;;;;4956845;29;19914;-80
2023/12/15 09:05:26;;;;;;;;;;;11.70;87.50;;;;;;4939860;29;19911;-80
2023/12/15 09:07:51;;;;;;;;;;;11.80;87.50;;;;;;4940147;29;19918;-80
2023/12/15 09:10:17;;;;;;;;;;;11.80;87.50;;;;;;4939497;29;19906;-79
2023/12/15 09:12:43;;;;;;;;;;;11.80;87.40;;;;;;4939954;29;20025;-80
2023/12/15 09:15:08;;;;;;;;;;;11.90;87.60;;;;;;4956887;29;19917;-80
2023/12/15 09:17:34;;;;;;;;;;;11.70;87.50;;;;;;4939486;29;19996;-80
2023/12/15 09:19:59;;;;;;;;;;;11.80;87.50;;;;;;4939707;29;19997;-80
2023/12/15 09:22:25;;;;;;;;;;;11.80;87.50;;;;;;4939519;29;20576;-80
2023/12/15 09:24:51;;;;;;;;;;;11.70;87.40;;;;;;4939571;29;19953;-80
2023/12/15 09:27:17;;;;;;;;;;;11.70;87.50;;;;;;4939673;29;19906;-80
2023/12/15 09:29:42;;;;;;;;;;;11.70;87.40;;;;;;4939355;29;20390;-80
2023/12/15 09:32:08;;;;;;;;;;;11.80;87.50;;;;;;4956683;29;19913;-80
2023/12/15 09:34:33;;;;;;;;;;;11.80;87.40;;;;;;4939535;29;20413;-80
2023/12/15 09:36:59;;;;;;;;;;;11.80;87.40;;;;;;4939422;29;19907;-80
2023/12/15 09:39:24;;;;;;;;;;;11.80;87.60;;;;;;4939137;29;19911;-80
2023/12/15 09:41:50;;;;;;;;;;;11.80;87.50;;;;;;4939152;29;19910;-80
2023/12/15 09:44:15;;;;;;;;;;;11.80;87.50;;;;;;4955298;29;19910;-80
2023/12/15 09:46:42;;;;;;;;;;;11.80;87.60;;;;;;4939176;29;20327;-80
2023/12/15 09:49:09;;;;;;;;;;;11.70;87.50;;;;;;4939255;29;19906;-80
2023/12/15 09:51:36;;;;;;;;;;;11.80;87.60;;;;;;4939050;29;19953;-79
2023/12/15 09:54:01;;;;;;;;;;;11.80;87.60;;;;;;4938976;29;19906;-80
2023/12/15 09:56:27;;;;;;;;;;;11.80;87.50;;;;;;4939089;29;19918;-80
2023/12/15 09:58:53;;;;;;;;;;;11.80;87.60;;;;;;4954879;29;19910;-80
2023/12/15 10:01:19;;;;;;;;;;;11.80;87.60;;;;;;4938763;28;19910;-80
2023/12/15 10:03:44;;;;;;;;;;;11.80;87.50;;;;;;4938880;29;19917;-80
2023/12/15 10:06:10;;;;;;;;;;;11.80;87.50;;;;;;4939047;29;20378;-80
2023/12/15 10:08:40;;;;;;;;;;;11.80;87.50;;;;;;4939060;29;20017;-80
2023/12/15 10:11:07;;;;;;;;;;;11.80;87.50;;;;;;4939236;29;20274;-80
2023/12/15 10:13:32;;;;;;;;;;;11.80;87.50;;;;;;4939198;29;20370;-79
2023/12/15 10:15:58;;;;;;;;;;;11.80;87.50;;;;;;4938431;29;19921;-80
2023/12/15 10:18:23;;;;;;;;;;;11.70;87.40;;;;;;4938161;29;19938;-80
2023/12/15 10:20:49;;;;;;;;;;;11.70;87.50;;;;;;4938521;29;19906;-80
2023/12/15 10:23:15;;;;;;;;;;;11.80;87.50;;;;;;4938015;29;19961;-79
2023/12/15 10:25:47;;;;;;;;;;;11.70;87.50;;;;;;4938453;29;20278;-80
2023/12/15 10:28:14;;;;;;;;;;;11.80;87.60;;;;;;4938398;29;19914;-80
2023/12/15 10:30:40;;;;;;;;;;;11.80;87.50;;;;;;4938094;29;19906;-80
2023/12/15 10:33:05;;;;;;;;;;;11.80;87.50;;;;;;4938058;29;19914;-79
2023/12/15 10:35:31;;;;;;;;;;;11.80;87.50;;;;;;4937989;29;19933;-80
2023/12/15 10:37:57;;;;;;;;;;;11.80;87.50;;;;;;4937803;29;19973;-79
2023/12/15 10:40:22;;;;;;;;;;;11.80;87.40;;;;;;4937628;29;19906;-80
2023/12/15 10:42:50;;;;;;;;;;;11.90;87.50;;;;;;4937609;29;19914;-80
2023/12/15 10:45:17;;;;;;;;;;;11.80;87.30;;;;;;4937676;29;19910;-79
2023/12/15 10:47:43;;;;;;;;;;;11.80;87.40;;;;;;4953833;29;19906;-80
2023/12/15 10:50:09;;;;;;;;;;;11.80;87.40;;;;;;4954346;29;19916;-79
2023/12/15 10:52:39;;;;;;;;;;;11.80;87.40;;;;;;4937472;29;19910;-79
2023/12/15 10:55:06;;;;;;;;;;;11.80;87.40;;;;;;4937579;29;19910;-79
2023/12/15 10:57:32;;;;;;;;;;;11.80;87.40;;;;;;4937537;29;20405;-79
2023/12/15 10:59:58;;;;;;;;;;;11.80;87.40;;;;;;4937610;29;19948;-80
2023/12/15 11:02:24;;;;;;;;;;;11.80;87.90;;;;;;4937163;29;19910;-79
2023/12/15 11:04:51;;;;;;;;;;;11.80;87.40;;;;;;4937400;29;19913;-80
2023/12/15 11:07:21;;;;;;;;;;;11.80;87.40;;;;;;4937000;29;19907;-80
2023/12/15 11:09:46;;;;;;;;;;;11.80;87.40;;;;;;4953922;29;19918;-80
2023/12/15 11:12:27;;;;;;;;;;;11.80;87.40;;;;;;4936923;29;19907;-80
2023/12/15 11:14:53;;;;;;;;;;;11.80;87.40;;;;;;4952608;28;19906;-80
2023/12/15 11:17:19;;;;;;;;;;;11.80;87.40;;;;;;4937046;29;19964;-79
2023/12/15 11:19:45;;;;;;;;;;;11.80;87.40;;;;;;4936817;29;20355;-80
2023/12/15 11:22:11;;;;;;;;;;;11.80;87.40;;;;;;4936910;29;19906;-80
2023/12/15 11:24:37;;;;;;;;;;;11.80;87.40;;;;;;4937022;29;19906;-80
2023/12/15 11:27:03;;;;;;;;;;;11.80;87.40;;;;;;4953967;29;20384;-80
2023/12/15 11:29:33;;;;;;;;;;;11.80;87.40;;;;;;4936588;29;19917;-79
2023/12/15 11:32:18;;;;;;;;;;;11.80;87.50;;;;;;4936804;29;19907;-80
2023/12/15 11:34:44;;;;;;;;;;;11.80;87.50;;;;;;4936598;29;20013;-80
2023/12/15 11:37:11;;;;;;;;;;;11.80;87.40;;;;;;4936903;29;20379;-80
2023/12/15 11:39:39;;;;;;;;;;;11.80;87.40;;;;;;4936493;29;19917;-79
2023/12/15 11:42:04;;;;;;;;;;;11.80;87.40;;;;;;4952717;29;20343;-80
2023/12/15 11:44:31;;;;;;;;;;;11.80;87.40;;;;;;4953401;29;19921;-80
2023/12/15 11:46:58;;;;;;;;;;;11.80;87.40;;;;;;4936418;29;19907;-80
2023/12/15 11:49:24;;;;;;;;;;;11.80;87.40;;;;;;4936655;29;19966;-79
2023/12/15 11:51:50;;;;;;;;;;;11.80;87.40;;;;;;4952402;29;19914;-80
2023/12/15 11:54:16;;;;;;;;;;;11.80;87.50;;;;;;4936411;29;19907;-80
2023/12/15 11:56:41;;;;;;;;;;;11.80;87.50;;;;;;4936591;29;19912;-80
2023/12/15 11:59:07;;;;;;;;;;;11.70;87.40;;;;;;4952626;29;19910;-79
2023/12/15 12:01:35;;;;;;;;;;;11.80;87.50;;;;;;4936207;29;19906;-80
2023/12/15 12:04:00;;;;;;;;;;;11.80;87.50;;;;;;4936082;29;20397;-80
2023/12/15 12:06:26;;;;;;;;;;;11.80;87.50;;;;;;4936290;29;19910;-80
2023/12/15 12:08:51;;;;;;;;;;;11.70;87.50;;;;;;4953554;29;19906;-80
2023/12/15 12:11:17;;;;;;;;;;;11.80;87.40;;;;;;4953248;29;19914;-80
2023/12/15 12:13:42;;;;;;;;;;;11.80;87.50;;;;;;4935774;29;20450;-79
2023/12/15 12:16:08;;;;;;;;;;;11.80;87.50;;;;;;4936123;29;19960;-80
2023/12/15 12:18:33;;;;;;;;;;;11.80;87.50;;;;;;4935722;29;20367;-79
2023/12/15 12:21:04;;;;;;;;;;;11.80;87.50;;;;;;4935791;29;20389;-80
2023/12/15 12:23:30;;;;;;;;;;;11.80;87.50;;;;;;4951626;29;19910;-79
2023/12/15 12:25:56;;;;;;;;;;;11.80;87.50;;;;;;4935917;29;19993;-79
2023/12/15 12:28:22;;;;;;;;;;;11.80;87.50;;;;;;4936309;29;20057;-80
2023/12/15 12:30:48;;;;;;;;;;;11.80;87.50;;;;;;4935975;29;20381;-79
2023/12/15 12:33:14;;;;;;;;;;;11.80;87.50;;;;;;4935917;29;19915;-79
2023/12/15 12:35:39;;;;;;;;;;;11.80;87.50;;;;;;4953237;29;19906;-80
2023/12/15 12:38:06;;;;;;;;;;;11.80;87.50;;;;;;4952096;29;19910;-79
2023/12/15 12:40:32;;;;;;;;;;;11.80;87.50;;;;;;4936166;29;20274;-80
2023/12/15 12:42:58;;;;;;;;;;;11.80;87.50;;;;;;4951442;29;19918;-80
2023/12/15 12:45:24;;;;;;;;;;;11.80;87.50;;;;;;4935770;29;19917;-78
2023/12/15 12:47:49;;;;;;;;;;;11.80;87.50;;;;;;4936293;29;20303;-80
2023/12/15 12:50:18;;;;;;;;;;;11.80;87.40;;;;;;4952202;29;19914;-80
2023/12/15 12:52:43;;;;;;;;;;;11.80;87.50;;;;;;4936117;29;19906;-80
2023/12/15 12:55:09;;;;;;;;;;;11.80;87.50;;;;;;4952386;29;19956;-80
2023/12/15 12:57:34;;;;;;;;;;;11.80;87.50;;;;;;4936439;29;19910;-80
2023/12/15 13:00:00;;;;;;;;;;;11.80;87.50;;;;;;4935649;29;19926;-80
2023/12/15 13:02:26;;;;;;;;;;;11.80;87.40;;;;;;4935791;29;20415;-80
2023/12/15 13:04:52;;;;;;;;;;;11.80;87.50;;;;;;4936114;29;19913;-80
2023/12/15 13:07:18;;;;;;;;;;;11.80;87.40;;;;;;4936152;29;19910;-80
2023/12/15 13:09:43;;;;;;;;;;;11.80;87.40;;;;;;4935426;29;19962;-80
2023/12/15 13:12:13;;;;;;;;;;;11.80;87.50;;;;;;4935234;29;19911;-80
2023/12/15 13:14:38;;;;;;;;;;;11.80;87.50;;;;;;4934955;29;19917;-79
2023/12/15 13:17:04;;;;;;;;;;;11.80;87.40;;;;;;4935318;29;19993;-79
2023/12/15 13:19:29;;;;;;;;;;;11.80;87.50;;;;;;4935346;29;19910;-80
2023/12/15 13:21:55;;;;;;;;;;;11.80;87.40;;;;;;4935335;29;20360;-79
2023/12/15 13:24:20;;;;;;;;;;;11.80;87.50;;;;;;4952379;29;20292;-80
2023/12/15 13:26:46;;;;;;;;;;;11.80;87.50;;;;;;4935449;29;19906;-80
2023/12/15 13:29:11;;;;;;;;;;;11.80;87.50;;;;;;4934898;29;19917;-80
2023/12/15 13:31:36;;;;;;;;;;;11.80;88.00;;;;;;4951243;29;19906;-80
2023/12/15 13:34:02;;;;;;;;;;;11.80;87.50;;;;;;4935349;29;20295;-79
2023/12/15 13:36:27;;;;;;;;;;;11.80;87.50;;;;;;4935291;29;19910;-79
2023/12/15 13:38:53;;;;;;;;;;;11.80;87.50;;;;;;4938790;29;19906;-80
2023/12/15 13:41:18;;;;;;;;;;;11.70;87.50;;;;;;4954593;29;20020;-80
2023/12/15 13:43:44;;;;;;;;;;;11.80;87.50;;;;;;4938541;29;20085;-79
2023/12/15 13:46:09;;;;;;;;;;;11.80;87.50;;;;;;4938976;29;19917;-81
2023/12/15 13:48:35;;;;;;;;;;;11.80;87.50;;;;;;4938505;29;19906;-80
2023/12/15 13:51:01;;;;;;;;;;;11.80;87.50;;;;;;4938572;29;19910;-80
2023/12/15 13:53:26;;;;;;;;;;;11.80;87.50;;;;;;4938507;29;19944;-80
2023/12/15 13:55:52;;;;;;;;;;;11.80;87.50;;;;;;4938831;29;19907;-80
2023/12/15 13:58:17;;;;;;;;;;;11.80;87.50;;;;;;4938313;29;19973;-79
2023/12/15 14:00:43;;;;;;;;;;;11.70;87.50;;;;;;4938164;29;19993;-80
2023/12/15 14:03:09;;;;;;;;;;;11.80;87.50;;;;;;4938288;29;19965;-78
2023/12/15 14:05:34;;;;;;;;;;;11.80;87.50;;;;;;4938374;29;19929;-80
2023/12/15 14:07:59;;;;;;;;;;;11.80;87.50;;;;;;4937858;29;20284;-79